Time;durP1;ratioP1;P1;durP2;ratioP2;P2;SDS_P1;SDS_P2;PMS_P1;PMS_P2;Temp;Humidity;BMP_temperature;BMP_pressure;BME280_temperature;BME280_humidity;BME280_pressure;Samples;Min_cycle;Max_cycle;Signal;HPM_P1;HPM_P2
2022/06/04 00:01:27;;;;;;;12.82;4.47;;;;;;;;;;5052533;28;20052;-65
2022/06/04 00:03:53;;;;;;;15.07;4.55;;;;;;;;;;5056787;28;20375;-67
2022/06/04 00:06:19;;;;;;;9.68;4.38;;;;;;;;;;5056714;28;20036;-65
2022/06/04 00:08:45;;;;;;;13.15;3.90;;;;;;;;;;5052632;28;20068;-65
2022/06/04 00:16:39;;;;;;;12.45;3.92;;;;;;;;;;5052493;28;20057;-68
2022/06/04 00:19:05;;;;;;;12.57;4.40;;;;;;;;;;5052344;28;20427;-66
2022/06/04 00:21:31;;;;;;;7.78;3.72;;;;;;;;;;5052229;28;20094;-64
2022/06/04 00:23:57;;;;;;;10.63;4.03;;;;;;;;;;5052571;28;20041;-69
2022/06/04 00:26:23;;;;;;;9.18;3.80;;;;;;;;;;5052205;28;20064;-65
2022/06/04 00:28:50;;;;;;;9.82;3.65;;;;;;;;;;5051891;28;20056;-64
2022/06/04 00:31:17;;;;;;;9.60;3.65;;;;;;;;;;5051776;28;20045;-67
2022/06/04 00:33:43;;;;;;;7.32;3.50;;;;;;;;;;5051013;28;20033;-64
2022/06/04 00:36:09;;;;;;;4.70;2.90;;;;;;;;;;5052994;28;20033;-64
2022/06/04 00:38:35;;;;;;;11.07;3.80;;;;;;;;;;5071257;28;20461;-64
2022/06/04 00:41:04;;;;;;;9.50;3.47;;;;;;;;;;5067651;28;20025;-64
2022/06/04 00:43:30;;;;;;;8.27;3.88;;;;;;;;;;5071685;28;20115;-64
2022/06/04 00:46:27;;;;;;;11.95;3.95;;;;;;;;;;5071960;28;20037;-64
2022/06/04 00:48:53;;;;;;;14.60;4.60;;;;;;;;;;5071906;28;20024;-64
2022/06/04 00:51:20;;;;;;;10.20;3.88;;;;;;;;;;5071723;28;20525;-65
2022/06/04 00:53:46;;;;;;;8.50;3.83;;;;;;;;;;5072238;28;20059;-64
2022/06/04 00:56:23;;;;;;;7.07;3.50;;;;;;;;;;5071890;28;20055;-65
2022/06/04 00:58:55;;;;;;;10.60;4.47;;;;;;;;;;5071017;28;20029;-65
2022/06/04 01:01:27;;;;;;;13.32;4.43;;;;;;;;;;5060922;28;20033;-65
2022/06/04 01:04:05;;;;;;;10.02;4.40;;;;;;;;;;5051828;28;20170;-65
2022/06/04 01:06:54;;;;;;;8.77;4.10;;;;;;;;;;5056188;28;20037;-64
2022/06/04 01:09:46;;;;;;;7.60;4.00;;;;;;;;;;5051722;28;20029;-65
2022/06/04 01:12:57;;;;;;;7.57;3.73;;;;;;;;;;5065288;28;20475;-65
2022/06/04 01:15:36;;;;;;;8.52;3.72;;;;;;;;;;5067370;28;20296;-71
2022/06/04 01:18:24;;;;;;;9.07;4.10;;;;;;;;;;5071772;28;20052;-67
2022/06/04 01:21:10;;;;;;;7.95;3.63;;;;;;;;;;5071711;28;20368;-64
2022/06/04 01:23:48;;;;;;;8.30;3.35;;;;;;;;;;5071357;28;20036;-67
2022/06/04 01:26:32;;;;;;;8.20;3.92;;;;;;;;;;5071478;28;20471;-69
2022/06/04 01:29:06;;;;;;;11.68;4.35;;;;;;;;;;5071416;28;20033;-68
2022/06/04 01:31:39;;;;;;;13.73;3.58;;;;;;;;;;5071663;28;20040;-67
2022/06/04 01:34:06;;;;;;;;;;;;;;;;;;5071248;28;20102;-68
2022/06/04 01:36:41;;;;;;;5.97;3.38;;;;;;;;;;5071618;28;20370;-70
2022/06/04 01:39:14;;;;;;;13.32;4.38;;;;;;;;;;5071469;28;20060;-68
2022/06/04 01:41:55;;;;;;;8.63;3.72;;;;;;;;;;5071585;28;20043;-65
2022/06/04 01:44:28;;;;;;;12.80;4.07;;;;;;;;;;5071566;28;20045;-69
2022/06/04 01:46:58;;;;;;;13.60;4.60;;;;;;;;;;5071638;28;20043;-67
2022/06/04 01:49:43;;;;;;;12.90;4.15;;;;;;;;;;5071398;28;20073;-64
2022/06/04 01:52:15;;;;;;;11.23;4.50;;;;;;;;;;5071470;28;20471;-72
2022/06/04 01:54:51;;;;;;;10.98;3.88;;;;;;;;;;5071263;28;20029;-67
2022/06/04 01:57:45;;;;;;;8.73;4.50;;;;;;;;;;5071149;28;20072;-70
2022/06/04 02:00:21;;;;;;;14.65;4.47;;;;;;;;;;5065649;28;20098;-67
2022/06/04 02:02:55;;;;;;;16.42;4.57;;;;;;;;;;5071322;28;20043;-64
2022/06/04 02:05:42;;;;;;;12.32;4.22;;;;;;;;;;5071272;28;20049;-65
2022/06/04 02:08:12;;;;;;;14.40;4.82;;;;;;;;;;5071461;28;20360;-64
2022/06/04 02:10:44;;;;;;;13.70;4.65;;;;;;;;;;5073378;28;20035;-64
2022/06/04 02:13:14;;;;;;;13.55;4.32;;;;;;;;;;5074647;28;20028;-65
2022/06/04 02:15:54;;;;;;;6.75;3.85;;;;;;;;;;5074727;28;20036;-64
2022/06/04 02:18:20;;;;;;;11.20;4.10;;;;;;;;;;5074534;28;20064;-64
2022/06/04 02:20:46;;;;;;;8.73;4.40;;;;;;;;;;5074272;28;20139;-65
2022/06/04 02:23:12;;;;;;;10.63;3.63;;;;;;;;;;5074308;28;20116;-63
2022/06/04 02:25:38;;;;;;;13.68;4.05;;;;;;;;;;5074610;28;20112;-65
2022/06/04 02:28:06;;;;;;;7.57;4.20;;;;;;;;;;5074373;28;20096;-65
2022/06/04 02:30:58;;;;;;;16.48;4.68;;;;;;;;;;5074368;28;20052;-64
2022/06/04 02:33:46;;;;;;;11.43;4.20;;;;;;;;;;5074426;28;20075;-64
2022/06/04 02:36:31;;;;;;;10.60;4.00;;;;;;;;;;5074454;28;20079;-63
2022/06/04 02:39:10;;;;;;;9.95;4.03;;;;;;;;;;5074362;28;20036;-64
2022/06/04 02:41:46;;;;;;;12.77;4.18;;;;;;;;;;5073991;28;20040;-64
2022/06/04 02:44:28;;;;;;;12.10;4.70;;;;;;;;;;5073879;28;20051;-64
2022/06/04 02:47:05;;;;;;;10.82;3.90;;;;;;;;;;5073852;28;20483;-64
2022/06/04 02:50:01;;;;;;;10.15;4.15;;;;;;;;;;5073876;28;20116;-64
2022/06/04 02:52:27;;;;;;;12.45;4.30;;;;;;;;;;5056395;28;20407;-64
2022/06/04 02:55:07;;;;;;;11.02;4.40;;;;;;;;;;5074217;28;20028;-73
2022/06/04 02:57:37;;;;;;;12.15;4.32;;;;;;;;;;5073881;28;20024;-68
2022/06/04 03:00:08;;;;;;;16.83;4.88;;;;;;;;;;5073913;28;20033;-71
2022/06/04 03:02:35;;;;;;;12.88;4.50;;;;;;;;;;5073757;28;20391;-70
2022/06/04 03:05:11;;;;;;;13.52;4.30;;;;;;;;;;5073382;28;20471;-69
2022/06/04 03:07:40;;;;;;;8.93;3.80;;;;;;;;;;5073396;28;20029;-67
2022/06/04 03:10:32;;;;;;;17.65;4.72;;;;;;;;;;5073355;28;20024;-67
2022/06/04 03:12:59;;;;;;;12.00;4.75;;;;;;;;;;5073192;28;20116;-67
2022/06/04 03:15:25;;;;;;;10.73;4.20;;;;;;;;;;5073464;28;20116;-67
2022/06/04 03:17:52;;;;;;;7.78;3.95;;;;;;;;;;5073536;28;20036;-67
2022/06/04 03:20:22;;;;;;;9.13;4.18;;;;;;;;;;5073160;28;20064;-64
2022/06/04 03:22:49;;;;;;;14.95;4.60;;;;;;;;;;5072491;28;20387;-70
2022/06/04 03:25:15;;;;;;;12.85;4.55;;;;;;;;;;5073489;28;20382;-67
2022/06/04 03:27:40;;;;;;;13.52;4.43;;;;;;;;;;5073126;28;20040;-65
2022/06/04 03:30:07;;;;;;;21.25;5.80;;;;;;;;;;5073176;28;20112;-66
2022/06/04 03:32:34;;;;;;;15.35;5.18;;;;;;;;;;5069775;28;20151;-64
2022/06/04 03:34:59;;;;;;;11.40;4.70;;;;;;;;;;5071965;28;20112;-64
2022/06/04 03:37:25;;;;;;;12.00;4.32;;;;;;;;;;5072781;28;20051;-64
2022/06/04 03:39:51;;;;;;;18.77;4.45;;;;;;;;;;5072465;28;20024;-65
2022/06/04 03:42:17;;;;;;;15.27;5.38;;;;;;;;;;5072514;28;20050;-64
2022/06/04 03:44:47;;;;;;;19.73;4.53;;;;;;;;;;5072789;28;20066;-64
2022/06/04 03:47:16;;;;;;;21.25;5.68;;;;;;;;;;5072483;28;20111;-64
2022/06/04 03:49:43;;;;;;;20.48;4.97;;;;;;;;;;5072140;28;20491;-64
2022/06/04 03:52:11;;;;;;;20.83;5.50;;;;;;;;;;5072452;28;20182;-65
2022/06/04 03:54:53;;;;;;;20.33;5.20;;;;;;;;;;5072314;28;20056;-63
2022/06/04 03:57:39;;;;;;;20.25;5.68;;;;;;;;;;5071964;28;20064;-66
2022/06/04 04:00:07;;;;;;;16.75;4.78;;;;;;;;;;5071443;28;20033;-64
2022/06/04 04:02:39;;;;;;;14.32;4.80;;;;;;;;;;5071708;28;20082;-66
2022/06/04 04:05:07;;;;;;;16.70;5.20;;;;;;;;;;5072049;28;20093;-64
2022/06/04 04:07:33;;;;;;;17.45;5.47;;;;;;;;;;5071852;28;20028;-64
2022/06/04 04:09:59;;;;;;;21.58;5.40;;;;;;;;;;5071719;28;20028;-65
2022/06/04 04:12:25;;;;;;;17.85;4.95;;;;;;;;;;5072008;28;20039;-65
2022/06/04 04:14:51;;;;;;;22.63;4.97;;;;;;;;;;5072140;28;20039;-64
2022/06/04 04:17:17;;;;;;;14.07;4.30;;;;;;;;;;5071956;28;20107;-65
2022/06/04 04:19:43;;;;;;;12.57;4.30;;;;;;;;;;5072039;28;20040;-64
2022/06/04 04:22:08;;;;;;;13.13;4.63;;;;;;;;;;5071888;28;20478;-64
2022/06/04 04:24:34;;;;;;;11.70;4.95;;;;;;;;;;5071330;28;20509;-69
2022/06/04 04:27:00;;;;;;;11.60;4.30;;;;;;;;;;5071510;28;20375;-65
2022/06/04 04:29:26;;;;;;;21.88;4.90;;;;;;;;;;5072028;28;20123;-65
2022/06/04 04:31:51;;;;;;;11.57;4.47;;;;;;;;;;5071654;28;20029;-66
2022/06/04 04:34:17;;;;;;;11.15;4.45;;;;;;;;;;5071763;28;20039;-65
2022/06/04 04:36:45;;;;;;;13.43;4.28;;;;;;;;;;5071402;28;20024;-66
2022/06/04 04:39:11;;;;;;;15.13;4.65;;;;;;;;;;5070638;28;20032;-65
2022/06/04 04:41:37;;;;;;;6.43;4.00;;;;;;;;;;5070538;28;20375;-66
2022/06/04 04:44:03;;;;;;;12.52;4.30;;;;;;;;;;5070211;28;20032;-66
2022/06/04 04:46:29;;;;;;;11.45;4.03;;;;;;;;;;5070002;28;20056;-66
2022/06/04 04:48:56;;;;;;;12.77;4.80;;;;;;;;;;5071950;28;20032;-73
2022/06/04 04:51:24;;;;;;;9.75;4.15;;;;;;;;;;5067664;28;20078;-70
2022/06/04 04:53:51;;;;;;;12.95;4.03;;;;;;;;;;5070607;28;20032;-71
2022/06/04 04:59:58;;;;;;;8.93;4.15;;;;;;;;;;5084221;28;20105;-69
2022/06/04 05:02:24;;;;;;;13.30;4.07;;;;;;;;;;5081649;28;20040;-70
2022/06/04 05:04:50;;;;;;;10.25;4.30;;;;;;;;;;5072420;28;20035;-72
2022/06/04 05:07:15;;;;;;;12.90;4.50;;;;;;;;;;5072439;28;20387;-65
2022/06/04 05:09:41;;;;;;;13.48;4.18;;;;;;;;;;5072052;28;20024;-72
2022/06/04 05:12:08;;;;;;;12.43;3.65;;;;;;;;;;5071803;28;20039;-64
2022/06/04 05:14:35;;;;;;;9.32;3.95;;;;;;;;;;5072229;28;20028;-68
2022/06/04 05:17:01;;;;;;;16.77;4.70;;;;;;;;;;5072532;28;20395;-65
2022/06/04 05:19:28;;;;;;;10.90;3.78;;;;;;;;;;5072448;28;20021;-65
2022/06/04 05:21:55;;;;;;;9.38;3.60;;;;;;;;;;5071969;28;20048;-64
2022/06/04 05:24:26;;;;;;;10.10;4.20;;;;;;;;;;5072017;28;20136;-66
2022/06/04 05:26:52;;;;;;;11.25;3.78;;;;;;;;;;5071991;28;20040;-65
2022/06/04 05:29:19;;;;;;;13.93;3.47;;;;;;;;;;5075004;28;20013;-64
2022/06/04 05:31:45;;;;;;;10.02;3.58;;;;;;;;;;5082380;28;20111;-64
2022/06/04 05:34:13;;;;;;;11.30;3.53;;;;;;;;;;5078023;28;20024;-63
2022/06/04 05:36:39;;;;;;;10.38;3.75;;;;;;;;;;5081203;28;20028;-65
2022/06/04 05:39:07;;;;;;;12.30;4.28;;;;;;;;;;5092348;28;20526;-64
2022/06/04 05:41:34;;;;;;;8.45;3.78;;;;;;;;;;5092084;28;20082;-65
2022/06/04 05:44:00;;;;;;;16.90;3.85;;;;;;;;;;5091286;28;20394;-65
2022/06/04 05:46:26;;;;;;;7.50;3.28;;;;;;;;;;5075169;28;20544;-65
2022/06/04 05:48:52;;;;;;;6.25;3.35;;;;;;;;;;5075593;28;20467;-66
2022/06/04 05:51:22;;;;;;;7.95;3.83;;;;;;;;;;5075802;28;20124;-66
2022/06/04 05:53:49;;;;;;;10.48;4.00;;;;;;;;;;5075541;28;20060;-68
2022/06/04 05:56:24;;;;;;;12.00;4.80;;;;;;;;;;5075455;28;20020;-68
2022/06/04 05:58:52;;;;;;;13.43;3.70;;;;;;;;;;5075291;28;20061;-66
2022/06/04 06:01:20;;;;;;;9.25;3.50;;;;;;;;;;5075245;28;20027;-65
2022/06/04 06:03:47;;;;;;;11.73;3.47;;;;;;;;;;5075347;28;20052;-68
2022/06/04 06:06:15;;;;;;;10.98;4.10;;;;;;;;;;5075443;28;20513;-64
2022/06/04 06:08:41;;;;;;;12.45;3.63;;;;;;;;;;5075153;28;20029;-65
2022/06/04 06:11:09;;;;;;;10.05;3.80;;;;;;;;;;5075118;28;20036;-65
2022/06/04 06:13:35;;;;;;;16.15;3.63;;;;;;;;;;5075617;28;20476;-65
2022/06/04 06:16:12;;;;;;;7.13;3.90;;;;;;;;;;5075276;28;20151;-65
2022/06/04 06:18:38;;;;;;;7.88;3.63;;;;;;;;;;5075479;28;20036;-72
2022/06/04 06:21:09;;;;;;;11.18;4.40;;;;;;;;;;5074808;28;20045;-69
2022/06/04 06:23:36;;;;;;;9.93;3.85;;;;;;;;;;5074960;28;20052;-71
2022/06/04 06:26:11;;;;;;;8.20;3.80;;;;;;;;;;5075232;28;20083;-70
2022/06/04 06:28:39;;;;;;;14.27;4.63;;;;;;;;;;5075169;28;20060;-68
2022/06/04 06:31:06;;;;;;;15.52;4.53;;;;;;;;;;5075034;28;20032;-73
2022/06/04 06:33:33;;;;;;;16.38;4.53;;;;;;;;;;5075158;28;20036;-66
2022/06/04 06:36:03;;;;;;;7.55;3.78;;;;;;;;;;5083598;28;20028;-69
2022/06/04 06:38:29;;;;;;;12.73;3.92;;;;;;;;;;5094536;28;20051;-68
2022/06/04 06:40:57;;;;;;;11.02;4.25;;;;;;;;;;5078351;28;20032;-66
2022/06/04 06:43:35;;;;;;;15.35;4.32;;;;;;;;;;5081837;28;20383;-66
2022/06/04 06:46:06;;;;;;;21.30;3.90;;;;;;;;;;5073766;28;20399;-68
2022/06/04 06:48:33;;;;;;;15.32;4.78;;;;;;;;;;5074670;28;20383;-65
2022/06/04 06:51:12;;;;;;;13.30;3.97;;;;;;;;;;5074518;28;20465;-70
2022/06/04 06:53:38;;;;;;;18.70;4.32;;;;;;;;;;5074838;28;20475;-66
2022/06/04 06:56:19;;;;;;;14.73;4.60;;;;;;;;;;5073471;28;20047;-68
2022/06/04 06:58:47;;;;;;;12.80;4.20;;;;;;;;;;5074382;28;20479;-65
2022/06/04 07:01:14;;;;;;;10.05;3.75;;;;;;;;;;5074173;28;20024;-65
2022/06/04 07:03:41;;;;;;;11.55;3.70;;;;;;;;;;5074280;28;20036;-70
2022/06/04 07:06:10;;;;;;;14.35;4.18;;;;;;;;;;5073752;28;20458;-70
2022/06/04 07:08:37;;;;;;;13.05;4.40;;;;;;;;;;5082253;28;20367;-65
2022/06/04 07:11:04;;;;;;;17.83;8.55;;;;;;;;;;5092741;28;20026;-71
2022/06/04 07:13:31;;;;;;;15.48;4.05;;;;;;;;;;5092884;28;20058;-72
2022/06/04 07:15:58;;;;;;;13.18;3.47;;;;;;;;;;5091510;28;20473;-72
2022/06/04 07:18:25;;;;;;;8.57;3.95;;;;;;;;;;5093065;28;20395;-70
2022/06/04 07:20:51;;;;;;;13.25;3.72;;;;;;;;;;5091267;28;20060;-76
2022/06/04 07:23:18;;;;;;;9.80;3.70;;;;;;;;;;5091986;28;20481;-73
2022/06/04 07:25:45;;;;;;;10.88;3.72;;;;;;;;;;5093287;28;20032;-73
2022/06/04 07:28:13;;;;;;;10.23;3.92;;;;;;;;;;5072241;28;20032;-75
2022/06/04 07:30:39;;;;;;;9.00;3.65;;;;;;;;;;5073210;28;20028;-69
2022/06/04 07:33:06;;;;;;;11.52;4.22;;;;;;;;;;5071392;28;20086;-69
2022/06/04 07:35:32;;;;;;;15.55;3.95;;;;;;;;;;5072254;28;20029;-69
2022/06/04 07:37:58;;;;;;;11.88;4.53;;;;;;;;;;5072729;28;20043;-76
2022/06/04 07:40:24;;;;;;;12.10;4.75;;;;;;;;;;5072318;28;20479;-70
2022/06/04 07:42:50;;;;;;;8.80;4.07;;;;;;;;;;5077163;28;20050;-71
2022/06/04 07:45:16;;;;;;;8.95;4.28;;;;;;;;;;5091153;28;20031;-76
2022/06/04 07:47:44;;;;;;;8.73;4.20;;;;;;;;;;5090890;28;20024;-75
2022/06/04 07:50:11;;;;;;;13.20;4.55;;;;;;;;;;5091105;28;20250;-75
2022/06/04 07:52:37;;;;;;;10.88;4.15;;;;;;;;;;5092670;28;20036;-75
2022/06/04 07:55:07;;;;;;;9.85;4.15;;;;;;;;;;5092779;28;20028;-72
2022/06/04 07:57:34;;;;;;;14.88;5.03;;;;;;;;;;5092097;28;20036;-78
2022/06/04 08:00:00;;;;;;;7.72;4.13;;;;;;;;;;5092546;28;20024;-70
2022/06/04 08:02:26;;;;;;;8.55;4.45;;;;;;;;;;5092019;28;20111;-73
2022/06/04 08:04:54;;;;;;;13.50;4.60;;;;;;;;;;5092333;28;20474;-75
2022/06/04 08:07:21;;;;;;;14.05;4.57;;;;;;;;;;5092569;28;20033;-73
2022/06/04 08:09:49;;;;;;;9.57;4.40;;;;;;;;;;5090338;28;20146;-74
2022/06/04 08:12:15;;;;;;;7.38;4.00;;;;;;;;;;5089508;28;20552;-77
2022/06/04 08:14:42;;;;;;;11.40;4.07;;;;;;;;;;5092770;28;20024;-76
2022/06/04 08:17:09;;;;;;;11.50;4.35;;;;;;;;;;5093645;28;20074;-68
2022/06/04 08:19:35;;;;;;;11.80;3.97;;;;;;;;;;5093191;28;20458;-74
2022/06/04 08:22:01;;;;;;;15.77;4.50;;;;;;;;;;5090126;28;20058;-74
2022/06/04 08:24:27;;;;;;;12.07;4.10;;;;;;;;;;5092843;28;20060;-76
2022/06/04 08:26:58;;;;;;;8.98;4.38;;;;;;;;;;5092333;28;20051;-75
2022/06/04 08:29:26;;;;;;;9.37;4.20;;;;;;;;;;5092874;28;20020;-72
2022/06/04 08:31:53;;;;;;;9.77;3.95;;;;;;;;;;5092421;28;20369;-70
2022/06/04 08:34:19;;;;;;;8.90;4.35;;;;;;;;;;5092576;28;20028;-69
2022/06/04 08:36:45;;;;;;;11.63;4.45;;;;;;;;;;5088606;28;20025;-71
2022/06/04 08:39:11;;;;;;;12.00;4.57;;;;;;;;;;5072743;28;20046;-74
2022/06/04 08:42:06;;;;;;;7.47;3.65;;;;;;;;;;5072582;28;20032;-70
2022/06/04 08:44:37;;;;;;;11.10;4.30;;;;;;;;;;5072556;28;20048;-75
2022/06/04 08:47:17;;;;;;;7.30;3.83;;;;;;;;;;5072372;28;20129;-76
2022/06/04 08:49:59;;;;;;;11.63;3.78;;;;;;;;;;5072053;28;20050;-72
2022/06/04 08:52:42;;;;;;;7.97;3.80;;;;;;;;;;5072322;28;20035;-74
2022/06/04 08:58:28;;;;;;;12.57;4.00;;;;;;;;;;5072445;28;20033;-76
2022/06/04 09:01:10;;;;;;;9.82;4.05;;;;;;;;;;5078481;28;20031;-69
2022/06/04 09:03:47;;;;;;;10.02;3.78;;;;;;;;;;5092479;28;20119;-73
2022/06/04 09:06:41;;;;;;;11.55;4.50;;;;;;;;;;5092399;28;20372;-72
2022/06/04 09:09:28;;;;;;;12.35;4.70;;;;;;;;;;5092619;28;20375;-70
2022/06/04 09:12:32;;;;;;;9.73;4.00;;;;;;;;;;5092406;28;20047;-77
2022/06/04 09:15:04;;;;;;;11.82;4.20;;;;;;;;;;5092549;28;20039;-71
2022/06/04 09:17:42;;;;;;;9.33;4.57;;;;;;;;;;5092342;28;20381;-71
2022/06/04 09:20:17;;;;;;;14.77;4.18;;;;;;;;;;5093961;28;20068;-73
2022/06/04 09:22:45;;;;;;;12.48;4.63;;;;;;;;;;5096447;28;20459;-70
2022/06/04 09:25:15;;;;;;;12.57;4.57;;;;;;;;;;5096443;28;20039;-72
2022/06/04 09:28:04;;;;;;;12.70;4.85;;;;;;;;;;5095936;28;20028;-76
2022/06/04 09:30:37;;;;;;;9.07;4.70;;;;;;;;;;5096392;28;20240;-72
2022/06/04 09:33:47;;;;;;;10.63;4.28;;;;;;;;;;5093650;28;20116;-68
2022/06/04 09:36:17;;;;;;;14.30;4.68;;;;;;;;;;5074414;28;20522;-67
2022/06/04 09:39:14;;;;;;;22.30;4.63;;;;;;;;;;5075005;28;20064;-69
2022/06/04 09:41:40;;;;;;;10.38;4.82;;;;;;;;;;5073053;28;20101;-74
2022/06/04 09:44:13;;;;;;;12.90;4.57;;;;;;;;;;5075818;28;20036;-72
2022/06/04 09:46:45;;;;;;;9.05;4.90;;;;;;;;;;5076093;28;20150;-77
2022/06/04 09:49:23;;;;;;;6.18;3.88;;;;;;;;;;5075913;28;20463;-72
2022/06/04 09:51:49;;;;;;;10.15;4.40;;;;;;;;;;5075720;28;20155;-68
2022/06/04 09:54:22;;;;;;;11.98;4.65;;;;;;;;;;5076023;28;20027;-69
2022/06/04 09:56:53;;;;;;;12.57;5.03;;;;;;;;;;5075724;28;20041;-69
2022/06/04 09:59:25;;;;;;;10.10;4.50;;;;;;;;;;5075647;28;20107;-69
2022/06/04 10:01:57;;;;;;;12.23;5.40;;;;;;;;;;5075665;28;20497;-69
2022/06/04 10:04:34;;;;;;;8.60;4.45;;;;;;;;;;5075411;28;20033;-69
2022/06/04 10:07:14;;;;;;;8.82;4.35;;;;;;;;;;5075216;28;20040;-69
2022/06/04 10:09:55;;;;;;;8.05;4.25;;;;;;;;;;5075437;28;20050;-69
2022/06/04 10:13:42;;;;;;;18.00;4.50;;;;;;;;;;5075713;28;20117;-69
2022/06/04 10:15:26;;;;;;;9.07;4.93;;;;;;;;;;5075457;28;20035;-69
2022/06/04 10:18:06;;;;;;;11.23;4.72;;;;;;;;;;5077561;28;20029;-75
2022/06/04 10:20:33;;;;;;;12.77;4.25;;;;;;;;;;5075083;28;20491;-69
2022/06/04 10:22:58;;;;;;;9.20;4.07;;;;;;;;;;5089851;28;20043;-69
2022/06/04 10:25:53;;;;;;;11.23;4.40;;;;;;;;;;5094980;28;20044;-69
2022/06/04 10:28:25;;;;;;;9.48;5.40;;;;;;;;;;5092584;28;20052;-70
2022/06/04 10:31:36;;;;;;;12.60;5.18;;;;;;;;;;5095203;28;20382;-69
2022/06/04 10:34:24;;;;;;;15.70;5.15;;;;;;;;;;5032644;28;20038;-69
2022/06/04 10:37:01;;;;;;;11.80;4.13;;;;;;;;;;5032555;28;20078;-71
2022/06/04 10:39:33;;;;;;;10.40;4.93;;;;;;;;;;5078226;28;20128;-68
2022/06/04 10:42:29;;;;;;;13.13;4.95;;;;;;;;;;5094183;28;20107;-69
2022/06/04 10:45:08;;;;;;;11.40;4.22;;;;;;;;;;5093252;28;20047;-71
2022/06/04 10:47:36;;;;;;;8.77;4.20;;;;;;;;;;5087188;28;20463;-70
2022/06/04 10:50:21;;;;;;;9.45;4.78;;;;;;;;;;5088032;28;20413;-69
2022/06/04 10:53:12;;;;;;;12.32;4.20;;;;;;;;;;5094118;28;20385;-70
2022/06/04 10:55:54;;;;;;;12.25;4.63;;;;;;;;;;5093363;28;20036;-69
2022/06/04 10:58:45;;;;;;;9.73;4.50;;;;;;;;;;5092718;28;20071;-69
2022/06/04 11:01:25;;;;;;;14.30;5.70;;;;;;;;;;5093228;28;20035;-70
2022/06/04 11:04:16;;;;;;;14.88;5.10;;;;;;;;;;5088462;28;20044;-68
2022/06/04 11:06:49;;;;;;;12.07;5.00;;;;;;;;;;5081860;28;20066;-70
2022/06/04 11:09:19;;;;;;;10.25;4.80;;;;;;;;;;5090691;28;20482;-68
2022/06/04 11:11:51;;;;;;;11.10;5.50;;;;;;;;;;5092909;28;20494;-66
2022/06/04 11:14:24;;;;;;;;;;;;;;;;;;5092879;28;20028;-68
2022/06/04 11:17:05;;;;;;;14.77;5.70;;;;;;;;;;5086068;28;19923;-68
2022/06/04 11:19:38;;;;;;;11.82;5.07;;;;;;;;;;5090718;28;20269;-70
2022/06/04 11:22:35;;;;;;;12.02;5.13;;;;;;;;;;5094372;28;20039;-71
2022/06/04 11:25:35;;;;;;;9.70;5.00;;;;;;;;;;5092415;28;20043;-69
2022/06/04 11:28:05;;;;;;;12.63;5.75;;;;;;;;;;5087801;28;20067;-68
2022/06/04 11:30:46;;;;;;;9.05;4.90;;;;;;;;;;5093831;28;20032;-69
2022/06/04 11:33:41;;;;;;;8.60;5.20;;;;;;;;;;5092838;28;20073;-68
2022/06/04 11:36:18;;;;;;;9.63;4.90;;;;;;;;;;5091797;28;20036;-68
2022/06/04 11:39:02;;;;;;;11.90;4.97;;;;;;;;;;5093656;28;20028;-68
2022/06/04 11:41:49;;;;;;;12.93;5.78;;;;;;;;;;5093451;28;20024;-68
2022/06/04 11:44:41;;;;;;;8.35;4.38;;;;;;;;;;5094905;28;20044;-71
2022/06/04 11:47:48;;;;;;;11.70;5.18;;;;;;;;;;5095303;28;20399;-66
2022/06/04 11:50:58;;;;;;;9.20;5.07;;;;;;;;;;5095161;28;20152;-68
2022/06/04 11:53:49;;;;;;;11.13;5.95;;;;;;;;;;5094706;28;20039;-65
2022/06/04 11:56:24;;;;;;;8.20;5.20;;;;;;;;;;5094388;28;20024;-66
2022/06/04 11:58:55;;;;;;;12.65;5.47;;;;;;;;;;5093946;28;20115;-66
2022/06/04 12:01:32;;;;;;;8.68;5.00;;;;;;;;;;5093425;28;20081;-67
2022/06/04 12:04:15;;;;;;;8.55;5.60;;;;;;;;;;5072727;28;20138;-67
2022/06/04 12:06:48;;;;;;;9.75;5.03;;;;;;;;;;5072856;28;20043;-66
2022/06/04 12:09:40;;;;;;;14.00;5.20;;;;;;;;;;5071933;28;20024;-68
2022/06/04 12:12:21;;;;;;;7.93;5.03;;;;;;;;;;5072962;28;20457;-68
2022/06/04 12:14:54;;;;;;;8.88;4.82;;;;;;;;;;5072729;28;20471;-68
2022/06/04 12:17:31;;;;;;;13.20;5.35;;;;;;;;;;5072923;28;20367;-69
2022/06/04 12:26:34;;;;;;;11.73;5.50;;;;;;;;;;5072139;28;20047;-69
2022/06/04 12:29:02;;;;;;;8.57;5.45;;;;;;;;;;5072520;28;20335;-67
2022/06/04 12:31:35;;;;;;;7.28;4.50;;;;;;;;;;5072841;28;20387;-66
2022/06/04 12:34:04;;;;;;;10.45;5.85;;;;;;;;;;5072636;28;20071;-68
2022/06/04 12:36:37;;;;;;;9.98;5.22;;;;;;;;;;5072439;28;20039;-66
2022/06/04 12:39:26;;;;;;;10.13;4.90;;;;;;;;;;5071801;28;20036;-71
2022/06/04 12:41:55;;;;;;;9.20;5.05;;;;;;;;;;5072216;28;20040;-69
2022/06/04 12:44:31;;;;;;;9.23;4.70;;;;;;;;;;5080213;28;20028;-69
2022/06/04 12:47:11;;;;;;;8.32;4.60;;;;;;;;;;5092505;28;20063;-70
2022/06/04 12:50:16;;;;;;;10.27;5.20;;;;;;;;;;5093150;28;20478;-68
2022/06/04 12:52:47;;;;;;;12.23;4.82;;;;;;;;;;5089188;28;20111;-68
2022/06/04 12:55:25;;;;;;;14.32;5.03;;;;;;;;;;5091657;28;20040;-68
2022/06/04 12:57:58;;;;;;;9.00;4.68;;;;;;;;;;5091100;28;20055;-68
2022/06/04 13:00:39;;;;;;;16.67;6.05;;;;;;;;;;5092253;28;20475;-74
2022/06/04 13:03:04;;;;;;;10.32;5.47;;;;;;;;;;5092413;28;20036;-75
2022/06/04 13:05:30;;;;;;;13.48;6.30;;;;;;;;;;5092125;28;20089;-72
2022/06/04 13:08:26;;;;;;;7.30;4.72;;;;;;;;;;5091740;28;20315;-76
2022/06/04 13:11:43;;;;;;;6.53;4.68;;;;;;;;;;5091681;28;20111;-71
2022/06/04 13:14:26;;;;;;;10.05;5.18;;;;;;;;;;5049405;28;20041;-76
2022/06/04 13:16:55;;;;;;;7.95;4.78;;;;;;;;;;5088607;28;20125;-76
2022/06/04 13:20:00;;;;;;;7.85;4.95;;;;;;;;;;5092106;28;20028;-78
2022/06/04 13:22:34;;;;;;;6.60;4.18;;;;;;;;;;5090858;28;20059;-76
2022/06/04 13:25:05;;;;;;;9.45;4.00;;;;;;;;;;5091790;28;20032;-69
2022/06/04 13:27:51;;;;;;;9.27;4.45;;;;;;;;;;5091608;28;20084;-74
2022/06/04 13:30:26;;;;;;;9.27;4.38;;;;;;;;;;5091882;28;20081;-72
2022/06/04 13:32:57;;;;;;;9.35;4.20;;;;;;;;;;5091731;28;20032;-71
2022/06/04 13:35:24;;;;;;;8.10;4.60;;;;;;;;;;5091657;28;20071;-72
2022/06/04 13:37:51;;;;;;;7.78;4.43;;;;;;;;;;5089932;28;20024;-70
2022/06/04 13:40:26;;;;;;;16.63;4.53;;;;;;;;;;5091930;28;20048;-69
2022/06/04 13:42:56;;;;;;;10.23;4.78;;;;;;;;;;5091850;28;20576;-69
2022/06/04 13:45:28;;;;;;;6.40;4.10;;;;;;;;;;5084802;28;20032;-73
2022/06/04 13:48:01;;;;;;;14.73;5.25;;;;;;;;;;5072026;28;20740;-70
2022/06/04 13:50:32;;;;;;;8.48;4.00;;;;;;;;;;5071935;28;20395;-73
2022/06/04 13:53:01;;;;;;;9.80;4.50;;;;;;;;;;5072173;28;20029;-76
2022/06/04 13:55:38;;;;;;;7.63;4.20;;;;;;;;;;5072301;28;20510;-76
2022/06/04 13:58:10;;;;;;;8.75;4.25;;;;;;;;;;5083400;28;20124;-74
2022/06/04 14:00:37;;;;;;;6.15;4.20;;;;;;;;;;5092397;28;20105;-74
2022/06/04 14:03:15;;;;;;;7.70;4.45;;;;;;;;;;5092374;28;20024;-71
2022/06/04 14:05:44;;;;;;;8.52;4.45;;;;;;;;;;5092854;28;20032;-69
2022/06/04 14:08:30;;;;;;;7.93;4.38;;;;;;;;;;5095587;28;20070;-76
2022/06/04 14:11:14;;;;;;;8.30;4.40;;;;;;;;;;5096111;28;20111;-72
2022/06/04 14:13:59;;;;;;;9.25;4.63;;;;;;;;;;5095707;28;20489;-75
2022/06/04 14:16:25;;;;;;;9.50;4.50;;;;;;;;;;5095301;28;20024;-70
2022/06/04 14:19:13;;;;;;;8.90;4.35;;;;;;;;;;5083142;28;20021;-74
2022/06/04 14:21:53;;;;;;;11.45;4.80;;;;;;;;;;5073743;28;20047;-72
2022/06/04 14:24:37;;;;;;;10.63;4.57;;;;;;;;;;5075278;28;20137;-74
2022/06/04 14:27:31;;;;;;;11.35;4.60;;;;;;;;;;5075392;28;20036;-74
2022/06/04 14:30:13;;;;;;;7.53;4.38;;;;;;;;;;5075235;28;20067;-77
2022/06/04 14:32:43;;;;;;;9.93;4.78;;;;;;;;;;5076712;28;20028;-74
2022/06/04 14:35:31;;;;;;;12.57;4.63;;;;;;;;;;5083763;28;20036;-75
2022/06/04 14:38:05;;;;;;;7.25;4.40;;;;;;;;;;5087762;28;20028;-71
2022/06/04 14:40:56;;;;;;;7.55;4.30;;;;;;;;;;5093411;28;20036;-69
2022/06/04 14:43:28;;;;;;;5.30;4.03;;;;;;;;;;5070536;28;20040;-73
2022/06/04 14:46:01;;;;;;;13.73;4.65;;;;;;;;;;5084613;28;20475;-70
2022/06/04 14:48:39;;;;;;;10.65;4.40;;;;;;;;;;5073730;28;20032;-70
2022/06/04 14:51:30;;;;;;;7.95;4.30;;;;;;;;;;5075053;28;20032;-67
2022/06/04 14:53:57;;;;;;;9.27;4.93;;;;;;;;;;5074769;28;20439;-70
2022/06/04 14:56:32;;;;;;;7.32;4.20;;;;;;;;;;5083844;28;20028;-72
2022/06/04 14:59:14;;;;;;;8.13;4.43;;;;;;;;;;5074698;28;20033;-68
2022/06/04 15:01:55;;;;;;;9.70;4.77;;;;;;;;;;5074446;28;20467;-73
2022/06/04 15:04:41;;;;;;;9.57;4.68;;;;;;;;;;5074253;28;20033;-68
2022/06/04 15:07:38;;;;;;;7.72;4.75;;;;;;;;;;5074572;28;20044;-68
2022/06/04 15:10:28;;;;;;;9.70;4.65;;;;;;;;;;5073869;28;20036;-68
2022/06/04 15:13:35;;;;;;;10.13;4.68;;;;;;;;;;5089174;28;20506;-71
2022/06/04 15:16:27;;;;;;;8.82;5.07;;;;;;;;;;5087361;28;20070;-69
2022/06/04 15:19:10;;;;;;;7.60;4.55;;;;;;;;;;5072930;28;20181;-69
2022/06/04 15:21:47;;;;;;;11.13;4.82;;;;;;;;;;5094219;28;20482;-69
2022/06/04 15:24:38;;;;;;;8.57;4.47;;;;;;;;;;5087654;28;20032;-75
2022/06/04 15:27:36;;;;;;;11.20;4.82;;;;;;;;;;5093154;28;20502;-69
2022/06/04 15:36:13;;;;;;;10.07;3.97;;;;;;;;;;5094174;28;20039;-71
2022/06/04 15:39:04;;;;;;;9.45;4.95;;;;;;;;;;5082379;28;20555;-71
2022/06/04 15:41:33;;;;;;;8.13;4.70;;;;;;;;;;5093991;28;20115;-74
2022/06/04 15:44:13;;;;;;;10.93;4.90;;;;;;;;;;5093248;28;20028;-73